Aviation Digital Data Service (ADDS)

Output produced by METARs form (0417 UTC 26 June 2019)
found at http://www.aviationweather.gov/metar/data/
 
METAR text: ZGOW 260400Z 23003MPS 200V260 9999 FEW017 FEW026CB BKN040 30/26 Q1004 NOSIG
Conditions at: ZGOW (SHAN-TOU , CN) observed 0400 UTC 26 June 2019
Temperature: 30.0°C (86°F)
Dewpoint: 26.0°C (79°F) [RH = 79%]
Pressure (altimeter): 29.65 inches Hg (1004.0 mb)
Winds: from the SW (230 degrees) at 7 MPH (6 knots; 3.1 m/s)
Visibility: 6 or more miles (10+ km)
Ceiling: 4000 feet AGL
Clouds: few clouds at 1700 feet AGL
few clouds at 2600 feet AGL
broken clouds at 4000 feet AGL
Weather: no significant weather observed at this time

METAR text: ZGOW 260300Z 23002MPS 180V290 9999 FEW015 BKN040 30/26 Q1005 NOSIG
Conditions at: ZGOW (SHAN-TOU , CN) observed 0300 UTC 26 June 2019
Temperature: 30.0°C (86°F)
Dewpoint: 26.0°C (79°F) [RH = 79%]
Pressure (altimeter): 29.68 inches Hg (1005.0 mb)
Winds: from the SW (230 degrees) at 5 MPH (4 knots; 2.1 m/s)
Visibility: 6 or more miles (10+ km)
Ceiling: 4000 feet AGL
Clouds: few clouds at 1500 feet AGL
broken clouds at 4000 feet AGL
Weather: no significant weather observed at this time

METAR text: ZGOW 260200Z 21003MPS 170V250 9999 FEW011 BKN040 29/26 Q1005 NOSIG
Conditions at: ZGOW (SHAN-TOU , CN) observed 0200 UTC 26 June 2019
Temperature: 29.0°C (84°F)
Dewpoint: 26.0°C (79°F) [RH = 84%]
Pressure (altimeter): 29.68 inches Hg (1005.0 mb)
Winds: from the SSW (210 degrees) at 7 MPH (6 knots; 3.1 m/s)
Visibility: 6 or more miles (10+ km)
Ceiling: 4000 feet AGL
Clouds: few clouds at 1100 feet AGL
broken clouds at 4000 feet AGL
Weather: no significant weather observed at this time

METAR text: ZGOW 260100Z 22002MPS 180V250 9999 FEW011 BKN040 28/26 Q1005 NOSIG
Conditions at: ZGOW (SHAN-TOU , CN) observed 0100 UTC 26 June 2019
Temperature: 28.0°C (82°F)
Dewpoint: 26.0°C (79°F) [RH = 89%]
Pressure (altimeter): 29.68 inches Hg (1005.0 mb)
Winds: from the SW (220 degrees) at 5 MPH (4 knots; 2.1 m/s)
Visibility: 6 or more miles (10+ km)
Ceiling: 4000 feet AGL
Clouds: few clouds at 1100 feet AGL
broken clouds at 4000 feet AGL
Weather: no significant weather observed at this time

METAR text: ZGOW 260000Z 00000MPS 9999 FEW023 BKN050 28/26 Q1005 NOSIG
Conditions at: ZGOW (SHAN-TOU , CN) observed 0000 UTC 26 June 2019
Temperature: 28.0°C (82°F)
Dewpoint: 26.0°C (79°F) [RH = 89%]
Pressure (altimeter): 29.68 inches Hg (1005.0 mb)
Winds: calm
Visibility: 6 or more miles (10+ km)
Ceiling: 5000 feet AGL
Clouds: few clouds at 2300 feet AGL
broken clouds at 5000 feet AGL
Weather: no significant weather observed at this time

METAR text: ZGOW 252300Z 00000MPS 9999 SCT023 BKN040 26/25 Q1005 NOSIG
Conditions at: ZGOW (SHAN-TOU , CN) observed 2300 UTC 25 June 2019
Temperature: 26.0°C (79°F)
Dewpoint: 25.0°C (77°F) [RH = 94%]
Pressure (altimeter): 29.68 inches Hg (1005.0 mb)
Winds: calm
Visibility: 6 or more miles (10+ km)
Ceiling: 4000 feet AGL
Clouds: scattered clouds at 2300 feet AGL
broken clouds at 4000 feet AGL
Weather: no significant weather observed at this time

METAR text: ZGOW 252200Z 00000MPS CAVOK 26/25 Q1004 NOSIG
Conditions at: ZGOW (SHAN-TOU , CN) observed 2200 UTC 25 June 2019
Temperature: 26.0°C (79°F)
Dewpoint: 25.0°C (77°F) [RH = 94%]
Pressure (altimeter): 29.65 inches Hg (1004.0 mb)
Winds: calm
Visibility: 6 or more miles (10+ km)
Ceiling: ceiling and visibility are OK
Clouds: unknown
Weather: no significant weather observed at this time

METAR text: ZGOW 252100Z 00000MPS 9999 FEW015 BKN060 26/25 Q1005 NOSIG
Conditions at: ZGOW (SHAN-TOU , CN) observed 2100 UTC 25 June 2019
Temperature: 26.0°C (79°F)
Dewpoint: 25.0°C (77°F) [RH = 94%]
Pressure (altimeter): 29.68 inches Hg (1005.0 mb)
Winds: calm
Visibility: 6 or more miles (10+ km)
Ceiling: 6000 feet AGL
Clouds: few clouds at 1500 feet AGL
broken clouds at 6000 feet AGL
Weather: no significant weather observed at this time

METAR text: ZGOW 252000Z 00000MPS 9999 BKN060 26/26 Q1004 NOSIG
Conditions at: ZGOW (SHAN-TOU , CN) observed 2000 UTC 25 June 2019
Temperature: 26.0°C (79°F)
Dewpoint: 26.0°C (79°F) [RH = 100%]
Pressure (altimeter): 29.65 inches Hg (1004.0 mb)
Winds: calm
Visibility: 6 or more miles (10+ km)
Ceiling: 6000 feet AGL
Clouds: broken clouds at 6000 feet AGL
Weather: no significant weather observed at this time

METAR text: ZGOW 251900Z 00000MPS 9999 FEW033 26/26 Q1005 NOSIG
Conditions at: ZGOW (SHAN-TOU , CN) observed 1900 UTC 25 June 2019
Temperature: 26.0°C (79°F)
Dewpoint: 26.0°C (79°F) [RH = 100%]
Pressure (altimeter): 29.68 inches Hg (1005.0 mb)
Winds: calm
Visibility: 6 or more miles (10+ km)
Ceiling: at least 12,000 feet AGL
Clouds: few clouds at 3300 feet AGL
Weather: no significant weather observed at this time

METAR text: ZGOW 251800Z 00000MPS 9999 FEW033 26/25 Q1005 NOSIG
Conditions at: ZGOW (SHAN-TOU , CN) observed 1800 UTC 25 June 2019
Temperature: 26.0°C (79°F)
Dewpoint: 25.0°C (77°F) [RH = 94%]
Pressure (altimeter): 29.68 inches Hg (1005.0 mb)
Winds: calm
Visibility: 6 or more miles (10+ km)
Ceiling: at least 12,000 feet AGL
Clouds: few clouds at 3300 feet AGL
Weather: no significant weather observed at this time

METAR text: ZGOW 251700Z 00000MPS 9999 FEW033 26/25 Q1005 NOSIG
Conditions at: ZGOW (SHAN-TOU , CN) observed 1700 UTC 25 June 2019
Temperature: 26.0°C (79°F)
Dewpoint: 25.0°C (77°F) [RH = 94%]
Pressure (altimeter): 29.68 inches Hg (1005.0 mb)
Winds: calm
Visibility: 6 or more miles (10+ km)
Ceiling: at least 12,000 feet AGL
Clouds: few clouds at 3300 feet AGL
Weather: no significant weather observed at this time

METAR text: ZGOW 251600Z 00000MPS 9999 FEW033 26/25 Q1006 NOSIG
Conditions at: ZGOW (SHAN-TOU , CN) observed 1600 UTC 25 June 2019
Temperature: 26.0°C (79°F)
Dewpoint: 25.0°C (77°F) [RH = 94%]
Pressure (altimeter): 29.70 inches Hg (1006.0 mb)
Winds: calm
Visibility: 6 or more miles (10+ km)
Ceiling: at least 12,000 feet AGL
Clouds: few clouds at 3300 feet AGL
Weather: no significant weather observed at this time

METAR text: ZGOW 251500Z 31001MPS 9999 FEW013 SCT033 26/26 Q1007 NOSIG
Conditions at: ZGOW (SHAN-TOU , CN) observed 1500 UTC 25 June 2019
Temperature: 26.0°C (79°F)
Dewpoint: 26.0°C (79°F) [RH = 100%]
Pressure (altimeter): 29.73 inches Hg (1007.0 mb)
Winds: from the NW (310 degrees) at 2 MPH (2 knots; 1.0 m/s)
Visibility: 6 or more miles (10+ km)
Ceiling: at least 12,000 feet AGL
Clouds: few clouds at 1300 feet AGL
scattered clouds at 3300 feet AGL
Weather: no significant weather observed at this time

METAR text: ZGOW 251400Z 00000MPS 9999 FEW013 SCT030 27/26 Q1007 NOSIG
Conditions at: ZGOW (SHAN-TOU , CN) observed 1400 UTC 25 June 2019
Temperature: 27.0°C (81°F)
Dewpoint: 26.0°C (79°F) [RH = 94%]
Pressure (altimeter): 29.73 inches Hg (1007.0 mb)
Winds: calm
Visibility: 6 or more miles (10+ km)
Ceiling: at least 12,000 feet AGL
Clouds: few clouds at 1300 feet AGL
scattered clouds at 3000 feet AGL
Weather: no significant weather observed at this time

METAR text: ZGOW 251300Z 00000MPS 9999 FEW015 SCT040 26/26 Q1007 NOSIG
Conditions at: ZGOW (SHAN-TOU , CN) observed 1300 UTC 25 June 2019
Temperature: 26.0°C (79°F)
Dewpoint: 26.0°C (79°F) [RH = 100%]
Pressure (altimeter): 29.73 inches Hg (1007.0 mb)
Winds: calm
Visibility: 6 or more miles (10+ km)
Ceiling: at least 12,000 feet AGL
Clouds: few clouds at 1500 feet AGL
scattered clouds at 4000 feet AGL
Weather: no significant weather observed at this time

METAR text: ZGOW 251200Z 23002MPS 9999 SCT040 27/26 Q1006 NOSIG
Conditions at: ZGOW (SHAN-TOU , CN) observed 1200 UTC 25 June 2019
Temperature: 27.0°C (81°F)
Dewpoint: 26.0°C (79°F) [RH = 94%]
Pressure (altimeter): 29.70 inches Hg (1006.0 mb)
Winds: from the SW (230 degrees) at 5 MPH (4 knots; 2.1 m/s)
Visibility: 6 or more miles (10+ km)
Ceiling: at least 12,000 feet AGL
Clouds: scattered clouds at 4000 feet AGL
Weather: no significant weather observed at this time

METAR text: ZGOW 251100Z 17002MPS 150V240 9999 SCT030 27/26 Q1006 NOSIG
Conditions at: ZGOW (SHAN-TOU , CN) observed 1100 UTC 25 June 2019
Temperature: 27.0°C (81°F)
Dewpoint: 26.0°C (79°F) [RH = 94%]
Pressure (altimeter): 29.70 inches Hg (1006.0 mb)
Winds: from the S (170 degrees) at 5 MPH (4 knots; 2.1 m/s)
Visibility: 6 or more miles (10+ km)
Ceiling: at least 12,000 feet AGL
Clouds: scattered clouds at 3000 feet AGL
Weather: no significant weather observed at this time

METAR text: ZGOW 251000Z 16003G08MPS 080V240 9999 SCT011 BKN040 28/26 Q1006 NOSIG
Conditions at: ZGOW (SHAN-TOU , CN) observed 1000 UTC 25 June 2019
Temperature: 28.0°C (82°F)
Dewpoint: 26.0°C (79°F) [RH = 89%]
Pressure (altimeter): 29.70 inches Hg (1006.0 mb)
Winds: from the SSE (160 degrees) at 7 MPH (6 knots; 3.1 m/s)
gusting to 18 MPH (16 knots; 8.2 m/s)
Visibility: 6 or more miles (10+ km)
Ceiling: 4000 feet AGL
Clouds: scattered clouds at 1100 feet AGL
broken clouds at 4000 feet AGL
Weather: no significant weather observed at this time

METAR text: ZGOW 250900Z 18003MPS 110V220 9999 SCT013 BKN040 28/26 Q1005 NOSIG
Conditions at: ZGOW (SHAN-TOU , CN) observed 0900 UTC 25 June 2019
Temperature: 28.0°C (82°F)
Dewpoint: 26.0°C (79°F) [RH = 89%]
Pressure (altimeter): 29.68 inches Hg (1005.0 mb)
Winds: from the S (180 degrees) at 7 MPH (6 knots; 3.1 m/s)
Visibility: 6 or more miles (10+ km)
Ceiling: 4000 feet AGL
Clouds: scattered clouds at 1300 feet AGL
broken clouds at 4000 feet AGL
Weather: no significant weather observed at this time

METAR text: ZGOW 250800Z 15002MPS 070V180 9999 FEW007 SCT013 BKN026 28/26 Q1006 NOSIG
Conditions at: ZGOW (SHAN-TOU , CN) observed 0800 UTC 25 June 2019
Temperature: 28.0°C (82°F)
Dewpoint: 26.0°C (79°F) [RH = 89%]
Pressure (altimeter): 29.70 inches Hg (1006.0 mb)
Winds: from the SSE (150 degrees) at 5 MPH (4 knots; 2.1 m/s)
Visibility: 6 or more miles (10+ km)
Ceiling: 2600 feet AGL
Clouds: few clouds at 700 feet AGL
scattered clouds at 1300 feet AGL
broken clouds at 2600 feet AGL
Weather: no significant weather observed at this time

METAR text: ZGOW 250700Z 15002MPS 120V190 8000 FEW007 SCT013 BKN026 27/26 Q1006 NOSIG
Conditions at: ZGOW (SHAN-TOU , CN) observed 0700 UTC 25 June 2019
Temperature: 27.0°C (81°F)
Dewpoint: 26.0°C (79°F) [RH = 94%]
Pressure (altimeter): 29.70 inches Hg (1006.0 mb)
Winds: from the SSE (150 degrees) at 5 MPH (4 knots; 2.1 m/s)
Visibility: 5 miles ( 8 km)
Ceiling: 2600 feet AGL
Clouds: few clouds at 700 feet AGL
scattered clouds at 1300 feet AGL
broken clouds at 2600 feet AGL
Weather: no significant weather observed at this time

METAR text: ZGOW 250600Z 05002MPS 020V090 4000 -RA BR SCT007 SCT013 OVC026 27/26 Q1006 NOSIG
Conditions at: ZGOW (SHAN-TOU , CN) observed 0600 UTC 25 June 2019
Temperature: 27.0°C (81°F)
Dewpoint: 26.0°C (79°F) [RH = 94%]
Pressure (altimeter): 29.70 inches Hg (1006.0 mb)
Winds: from the NE (50 degrees) at 5 MPH (4 knots; 2.1 m/s)
Visibility: 2.49 miles (4.01 km)
Ceiling: 2600 feet AGL
Clouds: scattered clouds at 700 feet AGL
scattered clouds at 1300 feet AGL
overcast cloud deck at 2600 feet AGL
Weather: -RA BR  (light rain, mist)

METAR text: ZGOW 250500Z VRB01MPS 6000 -RA FEW007 SCT013 OVC030 28/26 Q1007 NOSIG
Conditions at: ZGOW (SHAN-TOU , CN) observed 0500 UTC 25 June 2019
Temperature: 28.0°C (82°F)
Dewpoint: 26.0°C (79°F) [RH = 89%]
Pressure (altimeter): 29.73 inches Hg (1007.0 mb)
Winds: variable direction winds at 2 MPH (2 knots; 1.0 m/s)
Visibility: 4 miles ( 6 km)
Ceiling: 3000 feet AGL
Clouds: few clouds at 700 feet AGL
scattered clouds at 1300 feet AGL
overcast cloud deck at 3000 feet AGL
Weather: -RA  (light rain)

METAR text: ZGOW 250400Z 00000MPS 6000 -RA FEW007 SCT013 OVC030 27/26 Q1007 NOSIG
Conditions at: ZGOW (SHAN-TOU , CN) observed 0400 UTC 25 June 2019
Temperature: 27.0°C (81°F)
Dewpoint: 26.0°C (79°F) [RH = 94%]
Pressure (altimeter): 29.73 inches Hg (1007.0 mb)
Winds: calm
Visibility: 4 miles ( 6 km)
Ceiling: 3000 feet AGL
Clouds: few clouds at 700 feet AGL
scattered clouds at 1300 feet AGL
overcast cloud deck at 3000 feet AGL
Weather: -RA  (light rain)

METAR text: ZGOW 250300Z VRB01MPS 6000 FEW007 SCT013 OVC030 27/26 Q1008 NOSIG
Conditions at: ZGOW (SHAN-TOU , CN) observed 0300 UTC 25 June 2019
Temperature: 27.0°C (81°F)
Dewpoint: 26.0°C (79°F) [RH = 94%]
Pressure (altimeter): 29.76 inches Hg (1008.0 mb)
Winds: variable direction winds at 2 MPH (2 knots; 1.0 m/s)
Visibility: 4 miles ( 6 km)
Ceiling: 3000 feet AGL
Clouds: few clouds at 700 feet AGL
scattered clouds at 1300 feet AGL
overcast cloud deck at 3000 feet AGL
Weather: no significant weather observed at this time

METAR text: ZGOW 250200Z 00000MPS 5000 -RA BR FEW007 SCT013 OVC030 27/25 Q1008 NOSIG
Conditions at: ZGOW (SHAN-TOU , CN) observed 0200 UTC 25 June 2019
Temperature: 27.0°C (81°F)
Dewpoint: 25.0°C (77°F) [RH = 89%]
Pressure (altimeter): 29.76 inches Hg (1008.0 mb)
Winds: calm
Visibility: 3 miles ( 5 km)
Ceiling: 3000 feet AGL
Clouds: few clouds at 700 feet AGL
scattered clouds at 1300 feet AGL
overcast cloud deck at 3000 feet AGL
Weather: -RA BR  (light rain, mist)

METAR text: ZGOW 250100Z 11002MPS 070V140 7000 -RA FEW007 SCT013 OVC030 26/25 Q1008 NOSIG
Conditions at: ZGOW (SHAN-TOU , CN) observed 0100 UTC 25 June 2019
Temperature: 26.0°C (79°F)
Dewpoint: 25.0°C (77°F) [RH = 94%]
Pressure (altimeter): 29.76 inches Hg (1008.0 mb)
Winds: from the ESE (110 degrees) at 5 MPH (4 knots; 2.1 m/s)
Visibility: 4 miles ( 7 km)
Ceiling: 3000 feet AGL
Clouds: few clouds at 700 feet AGL
scattered clouds at 1300 feet AGL
overcast cloud deck at 3000 feet AGL
Weather: -RA  (light rain)

METAR text: ZGOW 250000Z 12002MPS 080V140 7000 FEW007 SCT013 OVC030 26/25 Q1008 NOSIG
Conditions at: ZGOW (SHAN-TOU , CN) observed 0000 UTC 25 June 2019
Temperature: 26.0°C (79°F)
Dewpoint: 25.0°C (77°F) [RH = 94%]
Pressure (altimeter): 29.76 inches Hg (1008.0 mb)
Winds: from the ESE (120 degrees) at 5 MPH (4 knots; 2.1 m/s)
Visibility: 4 miles ( 7 km)
Ceiling: 3000 feet AGL
Clouds: few clouds at 700 feet AGL
scattered clouds at 1300 feet AGL
overcast cloud deck at 3000 feet AGL
Weather: no significant weather observed at this time

METAR text: ZGOW 242300Z 34002MPS 6000 SCT009 OVC020 25/25 Q1008 NOSIG
Conditions at: ZGOW (SHAN-TOU , CN) observed 2300 UTC 24 June 2019
Temperature: 25.0°C (77°F)
Dewpoint: 25.0°C (77°F) [RH = 100%]
Pressure (altimeter): 29.76 inches Hg (1008.0 mb)
Winds: from the NNW (340 degrees) at 5 MPH (4 knots; 2.1 m/s)
Visibility: 4 miles ( 6 km)
Ceiling: 2000 feet AGL
Clouds: scattered clouds at 900 feet AGL
overcast cloud deck at 2000 feet AGL
Weather: no significant weather observed at this time

METAR text: ZGOW 242200Z 08003MPS 6000 SCT009 OVC023 25/25 Q1007 NOSIG
Conditions at: ZGOW (SHAN-TOU , CN) observed 2200 UTC 24 June 2019
Temperature: 25.0°C (77°F)
Dewpoint: 25.0°C (77°F) [RH = 100%]
Pressure (altimeter): 29.73 inches Hg (1007.0 mb)
Winds: from the E (80 degrees) at 7 MPH (6 knots; 3.1 m/s)
Visibility: 4 miles ( 6 km)
Ceiling: 2300 feet AGL
Clouds: scattered clouds at 900 feet AGL
overcast cloud deck at 2300 feet AGL
Weather: no significant weather observed at this time

METAR text: ZGOW 242100Z 10003MPS 8000 SCT009 OVC030 25/24 Q1007 NOSIG
Conditions at: ZGOW (SHAN-TOU , CN) observed 2100 UTC 24 June 2019
Temperature: 25.0°C (77°F)
Dewpoint: 24.0°C (75°F) [RH = 94%]
Pressure (altimeter): 29.73 inches Hg (1007.0 mb)
Winds: from the E (100 degrees) at 7 MPH (6 knots; 3.1 m/s)
Visibility: 5 miles ( 8 km)
Ceiling: 3000 feet AGL
Clouds: scattered clouds at 900 feet AGL
overcast cloud deck at 3000 feet AGL
Weather: no significant weather observed at this time

METAR text: ZGOW 242000Z 07005MPS 9999 -RA SCT011 OVC033 25/24 Q1007 NOSIG
Conditions at: ZGOW (SHAN-TOU , CN) observed 2000 UTC 24 June 2019
Temperature: 25.0°C (77°F)
Dewpoint: 24.0°C (75°F) [RH = 94%]
Pressure (altimeter): 29.73 inches Hg (1007.0 mb)
Winds: from the ENE (70 degrees) at 12 MPH (10 knots; 5.1 m/s)
Visibility: 6 or more miles (10+ km)
Ceiling: 3300 feet AGL
Clouds: scattered clouds at 1100 feet AGL
overcast cloud deck at 3300 feet AGL
Weather: -RA  (light rain)

METAR text: ZGOW 241900Z 10003MPS 9999 FEW009 FEW026TCU BKN040 25/24 Q1008 NOSIG
Conditions at: ZGOW (SHAN-TOU , CN) observed 1900 UTC 24 June 2019
Temperature: 25.0°C (77°F)
Dewpoint: 24.0°C (75°F) [RH = 94%]
Pressure (altimeter): 29.76 inches Hg (1008.0 mb)
Winds: from the E (100 degrees) at 7 MPH (6 knots; 3.1 m/s)
Visibility: 6 or more miles (10+ km)
Ceiling: 4000 feet AGL
Clouds: few clouds at 900 feet AGL
few clouds at 2600 feet AGL
broken clouds at 4000 feet AGL
Weather: no significant weather observed at this time

METAR text: ZGOW 241800Z 10003MPS 9999 -RA SCT009 OVC040 25/24 Q1007 NOSIG
Conditions at: ZGOW (SHAN-TOU , CN) observed 1800 UTC 24 June 2019
Temperature: 25.0°C (77°F)
Dewpoint: 24.0°C (75°F) [RH = 94%]
Pressure (altimeter): 29.73 inches Hg (1007.0 mb)
Winds: from the E (100 degrees) at 7 MPH (6 knots; 3.1 m/s)
Visibility: 6 or more miles (10+ km)
Ceiling: 4000 feet AGL
Clouds: scattered clouds at 900 feet AGL
overcast cloud deck at 4000 feet AGL
Weather: -RA  (light rain)

METAR text: ZGOW 241700Z 11002MPS 9999 -RA SCT009 OVC040 25/25 Q1008 NOSIG
Conditions at: ZGOW (SHAN-TOU , CN) observed 1700 UTC 24 June 2019
Temperature: 25.0°C (77°F)
Dewpoint: 25.0°C (77°F) [RH = 100%]
Pressure (altimeter): 29.76 inches Hg (1008.0 mb)
Winds: from the ESE (110 degrees) at 5 MPH (4 knots; 2.1 m/s)
Visibility: 6 or more miles (10+ km)
Ceiling: 4000 feet AGL
Clouds: scattered clouds at 900 feet AGL
overcast cloud deck at 4000 feet AGL
Weather: -RA  (light rain)

Forecast for: ZGOW (SHAN-TOU , CN)
Text: TAF ZGOW 260303Z 2606/2706 21003MPS 6000 FEW015 BKN040 TX32/2606Z TN26/2622Z
Forecast period: 0600 UTC 26 June 2019 to 0600 UTC 27 June 2019
Forecast type: FROM: standard forecast or significant change
Winds: from the SSW (210 degrees) at 7 MPH (6 knots; 3.1 m/s)
Visibility: 4 miles (6 km)
Ceiling: 4000 feet AGL
Clouds: few clouds at 1500 feet AGL
broken clouds at 4000 feet AGL
Weather: no significant weather forecast for this period
Text: TEMPO 2606/2612 VRB08G13MPS 2500 TSRA SCT009 SCT026CB BKN030
Forecast period: 0600 to 1200 UTC 26 June 2019
Forecast type: TEMPORARY: The following changes expected for less than half the time period
Winds: variable direction winds at 18 MPH (16 knots; 8.2 m/s)
gusting to 29 MPH (25 knots; 12.9 m/s)
Visibility: 1.55 miles (2.49 km)
Ceiling: 3000 feet AGL
Clouds: scattered clouds at 900 feet AGL
scattered clouds at 2600 feet AGL
broken clouds at 3000 feet AGL
Weather: TSRA  (rain associated with thunderstorm(s))